createdAt,value
2023-02-22T00:01:35.929Z,13.90
2023-02-22T00:04:05.693Z,13.90
2023-02-22T00:06:33.356Z,13.90
2023-02-22T00:09:02.365Z,13.90
2023-02-22T00:11:31.454Z,13.90
2023-02-22T00:13:58.512Z,13.90
2023-02-22T00:16:26.640Z,13.90
2023-02-22T00:18:54.353Z,13.90
2023-02-22T00:21:22.312Z,13.80
2023-02-22T00:23:50.021Z,13.80
2023-02-22T00:26:19.998Z,13.80
2023-02-22T00:28:49.262Z,13.80
2023-02-22T00:31:16.973Z,13.80
2023-02-22T00:33:44.713Z,13.80
2023-02-22T00:36:13.671Z,13.80
2023-02-22T00:38:41.671Z,13.80
2023-02-22T00:41:09.365Z,13.80
2023-02-22T00:43:36.493Z,13.80
2023-02-22T00:46:03.759Z,13.90
2023-02-22T00:48:30.854Z,13.90
2023-02-22T00:50:57.808Z,13.90
2023-02-22T00:53:25.872Z,13.90
2023-02-22T00:55:53.269Z,13.90
2023-02-22T00:58:21.770Z,13.90
2023-02-22T01:00:48.971Z,13.90
2023-02-22T01:03:19.266Z,13.90
2023-02-22T01:05:47.075Z,13.90
2023-02-22T01:08:15.721Z,13.90
2023-02-22T01:10:43.482Z,13.90
2023-02-22T01:13:12.880Z,13.90
2023-02-22T01:15:42.808Z,13.90
2023-02-22T01:18:10.109Z,13.90
2023-02-22T01:20:37.312Z,13.90
2023-02-22T01:23:07.044Z,13.90
2023-02-22T01:25:35.302Z,13.80
2023-02-22T01:28:03.956Z,13.90
2023-02-22T01:30:34.511Z,13.90
2023-02-22T01:33:03.532Z,13.90
2023-02-22T01:35:33.214Z,13.90
2023-02-22T01:38:00.620Z,13.80
2023-02-22T01:40:33.808Z,13.80
2023-02-22T01:43:03.725Z,13.80
2023-02-22T01:45:30.782Z,13.90
2023-02-22T01:48:06.037Z,13.80
2023-02-22T01:50:37.661Z,13.80
2023-02-22T01:53:07.831Z,13.80
2023-02-22T01:55:35.688Z,13.80
2023-02-22T01:58:05.354Z,13.80
2023-02-22T02:00:33.096Z,13.80
2023-02-22T02:03:07.430Z,13.80
2023-02-22T02:05:35.972Z,13.70
2023-02-22T02:08:15.380Z,13.80
2023-02-22T02:10:43.058Z,13.70
2023-02-22T02:13:10.650Z,13.70
2023-02-22T02:15:37.879Z,13.70
2023-02-22T02:18:11.747Z,13.70
2023-02-22T02:20:41.941Z,13.70
2023-02-22T02:23:36.335Z,13.70
2023-02-22T02:26:34.266Z,13.60
2023-02-22T02:29:19.947Z,13.60
2023-02-22T02:32:19.135Z,13.60
2023-02-22T02:35:21.562Z,13.60
2023-02-22T02:38:09.445Z,13.60
2023-02-22T02:40:47.663Z,13.60
2023-02-22T02:43:26.508Z,13.50
2023-02-22T02:46:00.458Z,13.50
2023-02-22T02:48:30.789Z,13.50
2023-02-22T02:51:01.086Z,13.50
2023-02-22T02:53:39.125Z,13.50
2023-02-22T02:56:06.391Z,13.50
2023-02-22T02:58:33.470Z,13.40
2023-02-22T03:01:04.528Z,13.40
2023-02-22T03:03:58.442Z,13.50
2023-02-22T03:06:34.755Z,13.50
2023-02-22T03:09:19.919Z,13.50
2023-02-22T03:12:27.690Z,13.40
2023-02-22T03:15:01.420Z,13.40
2023-02-22T03:17:41.454Z,13.50
2023-02-22T03:20:34.789Z,13.40
2023-02-22T03:23:10.432Z,13.40
2023-02-22T03:25:46.475Z,13.40
2023-02-22T03:28:17.960Z,13.40
2023-02-22T03:30:54.813Z,13.30
2023-02-22T03:33:46.285Z,13.40
2023-02-22T03:36:25.353Z,13.40
2023-02-22T03:38:58.110Z,13.40
2023-02-22T03:41:27.165Z,13.30
2023-02-22T03:44:16.352Z,13.30
2023-02-22T03:46:46.815Z,13.30
2023-02-22T03:49:16.973Z,13.30
2023-02-22T03:51:44.418Z,13.30
2023-02-22T03:54:19.680Z,13.30
2023-02-22T03:56:57.042Z,13.30
2023-02-22T03:59:27.392Z,13.30
2023-02-22T04:01:55.997Z,13.30
2023-02-22T04:04:24.469Z,13.30
2023-02-22T04:06:52.539Z,13.30
2023-02-22T04:09:20.090Z,13.30
2023-02-22T04:11:47.580Z,13.30
2023-02-22T04:14:15.602Z,13.30
2023-02-22T04:16:42.927Z,13.30
2023-02-22T04:19:10.648Z,13.30
2023-02-22T04:21:38.935Z,13.20
2023-02-22T04:24:09.545Z,13.20
2023-02-22T04:26:37.482Z,13.20
2023-02-22T04:29:06.580Z,13.20
2023-02-22T04:31:38.215Z,13.20
2023-02-22T04:34:06.099Z,13.20
2023-02-22T04:36:36.146Z,13.20
2023-02-22T04:39:04.090Z,13.20
2023-02-22T04:41:31.573Z,13.20
2023-02-22T04:43:58.845Z,13.20
2023-02-22T04:46:27.134Z,13.20
2023-02-22T04:48:54.808Z,13.20
2023-02-22T04:51:25.349Z,13.10
2023-02-22T04:54:01.027Z,13.10
2023-02-22T04:56:28.840Z,13.10
2023-02-22T04:58:55.793Z,13.10
2023-02-22T05:01:23.592Z,13.10
2023-02-22T05:03:50.592Z,13.10
2023-02-22T05:06:18.820Z,13.10
2023-02-22T05:08:45.785Z,13.10
2023-02-22T05:11:12.854Z,13.10
2023-02-22T05:13:39.746Z,13.10
2023-02-22T05:16:07.054Z,13.10
2023-02-22T05:18:34.186Z,13.10
2023-02-22T05:21:01.257Z,13.10
2023-02-22T05:23:28.249Z,13.10
2023-02-22T05:25:55.232Z,13.10
2023-02-22T05:28:22.309Z,13.10
2023-02-22T05:30:49.353Z,13.10
2023-02-22T05:33:16.440Z,13.10
2023-02-22T05:35:43.444Z,13.10
2023-02-22T05:38:15.110Z,13.10
2023-02-22T05:40:43.228Z,13.10
2023-02-22T05:43:10.958Z,13.10
2023-02-22T05:45:38.022Z,13.10
2023-02-22T05:48:05.411Z,13.00
2023-02-22T05:50:33.329Z,13.00
2023-02-22T05:53:01.257Z,13.00
2023-02-22T05:55:28.284Z,13.00
2023-02-22T05:57:55.281Z,13.00
2023-02-22T06:00:28.864Z,13.10
2023-02-22T06:03:01.657Z,13.00
2023-02-22T06:05:29.961Z,13.00
2023-02-22T06:07:58.235Z,13.00
2023-02-22T06:10:26.014Z,13.00
2023-02-22T06:12:53.407Z,13.10
2023-02-22T06:15:22.592Z,13.00
2023-02-22T06:17:50.090Z,13.10
2023-02-22T06:20:19.582Z,13.00
2023-02-22T06:22:51.247Z,13.00
2023-02-22T06:25:20.713Z,13.00
2023-02-22T06:27:47.877Z,13.00
2023-02-22T06:30:16.322Z,13.00
2023-02-22T06:32:43.297Z,13.00
2023-02-22T06:35:10.626Z,13.00
2023-02-22T06:37:38.703Z,13.00
2023-02-22T06:40:06.003Z,13.00
2023-02-22T06:42:33.239Z,13.00
2023-02-22T06:45:00.490Z,13.00
2023-02-22T06:47:27.845Z,13.00
2023-02-22T06:49:58.506Z,13.00
2023-02-22T06:52:25.653Z,13.00
2023-02-22T06:54:52.776Z,13.00
2023-02-22T06:57:19.855Z,13.00
2023-02-22T06:59:46.788Z,13.00
2023-02-22T07:02:14.359Z,13.00
2023-02-22T07:04:43.423Z,13.00
2023-02-22T07:07:11.025Z,13.10
2023-02-22T07:09:37.956Z,13.00
2023-02-22T07:12:05.128Z,13.00
2023-02-22T07:14:32.199Z,13.00
2023-02-22T07:16:59.150Z,13.00
2023-02-22T07:19:26.091Z,13.00
2023-02-22T07:21:59.241Z,13.00
2023-02-22T07:24:28.531Z,13.10
2023-02-22T07:26:56.014Z,13.10
2023-02-22T07:29:22.952Z,13.10
2023-02-22T07:31:50.601Z,13.10
2023-02-22T07:34:17.692Z,13.10
2023-02-22T07:36:44.847Z,13.10
2023-02-22T07:39:11.760Z,13.10
2023-02-22T07:41:38.817Z,13.10
2023-02-22T07:44:14.724Z,13.20
2023-02-22T07:46:41.771Z,13.20
2023-02-22T07:49:08.759Z,13.20
2023-02-22T07:51:35.708Z,13.20
2023-02-22T07:54:02.669Z,13.20
2023-02-22T07:56:29.618Z,13.20
2023-02-22T07:58:56.712Z,13.20
2023-02-22T08:01:24.817Z,13.20
2023-02-22T08:03:52.743Z,13.20
2023-02-22T08:06:21.050Z,13.20
2023-02-22T08:08:48.082Z,13.20
2023-02-22T08:11:15.339Z,13.30
2023-02-22T08:13:42.432Z,13.30
2023-02-22T08:16:09.577Z,13.30
2023-02-22T08:18:38.396Z,13.30
2023-02-22T08:21:05.660Z,13.40
2023-02-22T08:23:32.975Z,13.30
2023-02-22T08:26:08.644Z,13.40
2023-02-22T08:28:35.820Z,13.40
2023-02-22T08:31:03.353Z,13.50
2023-02-22T08:33:30.461Z,13.50
2023-02-22T08:35:57.853Z,13.50
2023-02-22T08:38:27.649Z,13.50
2023-02-22T08:40:54.625Z,13.50
2023-02-22T08:43:22.676Z,13.60
2023-02-22T08:45:51.686Z,13.60
2023-02-22T08:48:19.878Z,13.60
2023-02-22T08:50:47.330Z,13.60
2023-02-22T08:53:16.522Z,13.60
2023-02-22T08:55:44.181Z,13.60
2023-02-22T08:58:12.164Z,13.70
2023-02-22T09:00:40.777Z,13.70
2023-02-22T09:03:15.888Z,13.70
2023-02-22T09:05:43.969Z,13.70
2023-02-22T09:08:11.207Z,13.80
2023-02-22T09:10:38.305Z,13.80
2023-02-22T09:13:05.731Z,13.80
2023-02-22T09:15:35.979Z,13.90
2023-02-22T09:18:03.878Z,13.90
2023-02-22T09:20:30.983Z,13.90
2023-02-22T09:22:58.167Z,13.90
2023-02-22T09:25:25.148Z,14.00
2023-02-22T09:27:53.634Z,14.00
2023-02-22T09:30:28.067Z,14.10
2023-02-22T09:32:58.090Z,14.10
2023-02-22T09:35:27.332Z,14.10
2023-02-22T09:37:56.651Z,14.10
2023-02-22T09:40:29.704Z,14.20
2023-02-22T09:43:07.291Z,14.20
2023-02-22T09:45:54.531Z,14.20
2023-02-22T09:48:22.809Z,14.20
2023-02-22T09:50:53.655Z,14.20
2023-02-22T09:53:41.711Z,14.30
2023-02-22T09:56:15.323Z,14.30
2023-02-22T09:58:46.510Z,14.30
2023-02-22T10:01:39.235Z,14.40
2023-02-22T10:04:19.643Z,14.40
2023-02-22T10:07:26.131Z,14.50
2023-02-22T10:09:56.581Z,14.50
2023-02-22T10:12:30.746Z,14.50
2023-02-22T10:15:17.486Z,14.50
2023-02-22T10:17:56.450Z,14.60
2023-02-22T10:20:54.036Z,14.60
2023-02-22T10:23:44.147Z,14.60
2023-02-22T10:26:16.647Z,14.70
2023-02-22T10:28:55.372Z,14.60
2023-02-22T10:31:28.359Z,14.60
2023-02-22T10:34:05.849Z,14.60
2023-02-22T10:36:34.435Z,14.70
2023-02-22T10:39:33.369Z,14.70
2023-02-22T10:42:09.796Z,14.70
2023-02-22T10:44:38.673Z,14.80
2023-02-22T10:47:08.278Z,14.90
2023-02-22T10:49:57.140Z,14.80
2023-02-22T10:52:30.766Z,14.90
2023-02-22T10:55:14.230Z,14.90
2023-02-22T10:57:46.159Z,14.90
2023-02-22T11:00:33.001Z,14.80
2023-02-22T11:03:02.469Z,14.80
2023-02-22T11:05:37.293Z,14.80
2023-02-22T11:08:24.461Z,14.80
2023-02-22T11:10:54.497Z,14.80
2023-02-22T11:13:30.978Z,14.70
2023-02-22T11:16:18.519Z,14.70
2023-02-22T11:18:47.244Z,14.70
2023-02-22T11:21:22.744Z,14.70
2023-02-22T11:24:00.977Z,14.80
2023-02-22T11:26:28.682Z,14.80
2023-02-22T11:28:56.739Z,14.80
2023-02-22T11:31:27.988Z,14.80
2023-02-22T11:33:58.543Z,14.90
2023-02-22T11:36:33.733Z,14.90
2023-02-22T11:39:01.049Z,14.90
2023-02-22T11:41:35.238Z,14.90
2023-02-22T11:44:26.546Z,14.90
2023-02-22T11:47:01.236Z,14.90
2023-02-22T11:49:41.732Z,15.00
2023-02-22T11:52:17.878Z,15.00
2023-02-22T11:54:58.491Z,15.10
2023-02-22T11:57:33.029Z,15.10
2023-02-22T12:00:24.591Z,15.20
2023-02-22T12:03:03.617Z,15.20
2023-02-22T12:05:59.640Z,15.30
2023-02-22T12:08:26.622Z,15.30
2023-02-22T12:11:18.271Z,15.30
2023-02-22T12:14:05.739Z,15.30
2023-02-22T12:17:10.383Z,15.30
2023-02-22T12:19:41.624Z,15.30
2023-02-22T12:22:15.301Z,15.30
2023-02-22T12:24:57.882Z,15.30
2023-02-22T12:27:38.710Z,15.30
2023-02-22T12:30:13.035Z,15.30
2023-02-22T12:32:43.815Z,15.30
2023-02-22T12:35:19.232Z,15.30
2023-02-22T12:37:58.452Z,15.30
2023-02-22T12:40:57.050Z,15.40
2023-02-22T12:43:35.194Z,15.40
2023-02-22T12:46:27.153Z,15.30
2023-02-22T12:49:20.888Z,15.40
2023-02-22T12:52:25.677Z,15.40
2023-02-22T12:55:04.421Z,15.50
2023-02-22T12:57:42.373Z,15.50
2023-02-22T13:00:17.812Z,15.50
2023-02-22T13:02:58.644Z,15.50
2023-02-22T13:05:26.154Z,15.60
2023-02-22T13:08:14.007Z,15.70
2023-02-22T13:10:43.759Z,15.70
2023-02-22T13:13:29.416Z,15.80
2023-02-22T13:15:57.421Z,15.80
2023-02-22T13:18:40.731Z,15.90
2023-02-22T13:21:24.130Z,16.00
2023-02-22T13:24:15.553Z,16.00
2023-02-22T13:27:15.060Z,16.00
2023-02-22T13:29:57.591Z,16.00
2023-02-22T13:32:46.987Z,16.00
2023-02-22T13:35:35.288Z,16.00
2023-02-22T13:38:31.268Z,15.90
2023-02-22T13:41:27.656Z,15.80
2023-02-22T13:44:22.401Z,15.70
2023-02-22T13:47:20.624Z,15.70
2023-02-22T13:50:20.529Z,15.60
2023-02-22T13:52:48.883Z,15.60
2023-02-22T13:55:20.629Z,15.70
2023-02-22T13:57:50.840Z,15.70
2023-02-22T14:00:23.154Z,15.80
2023-02-22T14:03:14.944Z,16.00
2023-02-22T14:05:42.402Z,16.20
2023-02-22T14:08:36.510Z,16.40
2023-02-22T14:11:06.024Z,16.70
2023-02-22T14:13:57.060Z,17.00
2023-02-22T14:16:26.356Z,17.30
2023-02-22T14:19:06.615Z,17.40
2023-02-22T14:21:37.391Z,17.50
2023-02-22T14:24:12.680Z,17.70
2023-02-22T14:26:40.446Z,17.80
2023-02-22T14:29:10.402Z,18.00
2023-02-22T14:31:52.088Z,18.30
2023-02-22T14:34:38.707Z,18.40
2023-02-22T14:37:11.964Z,18.50
2023-02-22T14:39:54.620Z,18.50
2023-02-22T14:42:27.093Z,18.60
2023-02-22T14:45:03.096Z,18.70
2023-02-22T14:48:01.028Z,18.80
2023-02-22T14:50:44.139Z,19.00
2023-02-22T14:53:26.055Z,19.00
2023-02-22T14:56:03.867Z,19.00
2023-02-22T14:58:40.573Z,18.80
2023-02-22T15:01:27.245Z,18.60
2023-02-22T15:04:07.283Z,18.40
2023-02-22T15:06:35.393Z,18.20
2023-02-22T15:09:30.110Z,18.00
2023-02-22T15:12:04.119Z,17.80
2023-02-22T15:14:39.204Z,17.60
2023-02-22T15:17:24.963Z,17.40
2023-02-22T15:19:52.700Z,17.30
2023-02-22T15:22:26.281Z,17.10
2023-02-22T15:25:00.988Z,17.00
2023-02-22T15:27:28.798Z,16.80
2023-02-22T15:30:04.812Z,16.80
2023-02-22T15:32:50.035Z,16.70
2023-02-22T15:35:30.373Z,16.70
2023-02-22T15:38:21.671Z,16.60
2023-02-22T15:40:59.679Z,16.60
2023-02-22T15:43:31.099Z,16.50
2023-02-22T15:45:59.550Z,16.50
2023-02-22T15:48:27.948Z,16.40
2023-02-22T15:51:09.378Z,16.40
2023-02-22T15:53:42.127Z,16.30
2023-02-22T15:56:18.731Z,16.20
2023-02-22T15:58:47.688Z,16.20
2023-02-22T16:01:19.095Z,16.20
2023-02-22T16:03:47.894Z,16.10
2023-02-22T16:06:28.654Z,16.10
2023-02-22T16:08:58.889Z,16.00
2023-02-22T16:11:43.840Z,15.90
2023-02-22T16:14:30.238Z,15.80
2023-02-22T16:17:32.445Z,15.80
2023-02-22T16:20:22.291Z,15.80
2023-02-22T16:22:50.373Z,15.70
2023-02-22T16:25:21.529Z,15.70
2023-02-22T16:27:55.857Z,15.60
2023-02-22T16:30:36.804Z,15.60
2023-02-22T16:33:16.502Z,15.50
2023-02-22T16:35:51.986Z,15.50
2023-02-22T16:38:19.312Z,15.50
2023-02-22T16:40:55.320Z,15.50
2023-02-22T16:43:25.304Z,15.40
2023-02-22T16:45:53.125Z,15.40
2023-02-22T16:48:23.098Z,15.30
2023-02-22T16:50:52.172Z,15.30
2023-02-22T16:53:22.991Z,15.30
2023-02-22T16:55:57.435Z,15.30
2023-02-22T16:58:29.321Z,15.20
2023-02-22T17:00:57.429Z,15.20
2023-02-22T17:03:26.150Z,15.20
2023-02-22T17:05:53.632Z,15.10
2023-02-22T17:08:20.862Z,15.10
2023-02-22T17:10:51.508Z,15.00
2023-02-22T17:13:26.828Z,15.10
2023-02-22T17:15:54.963Z,15.00
2023-02-22T17:18:23.891Z,15.00
2023-02-22T17:20:55.023Z,15.00
2023-02-22T17:23:24.305Z,15.00
2023-02-22T17:26:04.878Z,15.00
2023-02-22T17:28:31.948Z,14.90
2023-02-22T17:31:02.882Z,14.90
2023-02-22T17:33:33.369Z,14.90
2023-02-22T17:36:02.373Z,14.90
2023-02-22T17:38:30.517Z,14.90
2023-02-22T17:40:59.330Z,14.90
2023-02-22T17:43:28.005Z,14.90
2023-02-22T17:45:56.023Z,14.90
2023-02-22T17:48:24.343Z,14.80
2023-02-22T17:50:52.381Z,14.80
2023-02-22T17:53:22.814Z,14.80
2023-02-22T17:55:50.231Z,14.80
2023-02-22T17:58:18.134Z,14.80
2023-02-22T18:00:49.230Z,14.70
2023-02-22T18:03:21.700Z,14.70
2023-02-22T18:05:50.962Z,14.70
2023-02-22T18:08:18.664Z,14.70
2023-02-22T18:10:46.409Z,14.70
2023-02-22T18:13:17.900Z,14.70
2023-02-22T18:15:46.054Z,14.60
2023-02-22T18:18:13.589Z,14.60
2023-02-22T18:20:43.971Z,14.60
2023-02-22T18:23:16.633Z,14.60
2023-02-22T18:26:07.759Z,14.60
2023-02-22T18:28:36.842Z,14.60
2023-02-22T18:31:15.291Z,14.50
2023-02-22T18:33:47.237Z,14.50
2023-02-22T18:36:15.901Z,14.50
2023-02-22T18:38:43.766Z,14.50
2023-02-22T18:41:16.094Z,14.50
2023-02-22T18:43:43.517Z,14.50
2023-02-22T18:46:19.390Z,14.60
2023-02-22T18:48:48.234Z,14.50
2023-02-22T18:51:17.491Z,14.50
2023-02-22T18:53:47.569Z,14.50
2023-02-22T18:56:21.694Z,14.60
2023-02-22T18:58:57.152Z,14.60
2023-02-22T19:01:24.343Z,14.60
2023-02-22T19:03:51.944Z,14.60
2023-02-22T19:06:22.593Z,14.60
2023-02-22T19:08:50.970Z,14.50
2023-02-22T19:11:21.901Z,14.50
2023-02-22T19:13:52.218Z,14.50
2023-02-22T19:16:21.527Z,14.50
2023-02-22T19:18:52.324Z,14.50
2023-02-22T19:21:20.180Z,14.50
2023-02-22T19:23:48.266Z,14.50
2023-02-22T19:26:25.870Z,14.50
2023-02-22T19:28:55.160Z,14.50
2023-02-22T19:31:31.002Z,14.50
2023-02-22T19:34:02.641Z,14.40
2023-02-22T19:36:30.160Z,14.40
2023-02-22T19:39:02.149Z,14.50
2023-02-22T19:41:29.471Z,14.40
2023-02-22T19:43:57.130Z,14.40
2023-02-22T19:46:27.245Z,14.40
2023-02-22T19:48:57.526Z,14.40
2023-02-22T19:51:27.938Z,14.40
2023-02-22T19:54:00.466Z,14.40
2023-02-22T19:56:27.564Z,14.30
2023-02-22T19:58:56.665Z,14.40
2023-02-22T20:01:34.081Z,14.40
2023-02-22T20:04:04.014Z,14.40
2023-02-22T20:06:35.000Z,14.40
2023-02-22T20:09:02.894Z,14.40
2023-02-22T20:11:30.213Z,14.40
2023-02-22T20:13:57.241Z,14.40
2023-02-22T20:16:24.452Z,14.40
2023-02-22T20:18:51.700Z,14.40
2023-02-22T20:21:20.659Z,14.40
2023-02-22T20:23:48.254Z,14.40
2023-02-22T20:26:22.416Z,14.40
2023-02-22T20:28:50.115Z,14.40
2023-02-22T20:31:20.432Z,14.40
2023-02-22T20:33:49.579Z,14.40
2023-02-22T20:36:18.529Z,14.40
2023-02-22T20:38:46.122Z,14.30
2023-02-22T20:41:16.841Z,14.40
2023-02-22T20:43:44.269Z,14.40
2023-02-22T20:46:11.310Z,14.40
2023-02-22T20:48:38.908Z,14.40
2023-02-22T20:51:11.216Z,14.40
2023-02-22T20:53:42.109Z,14.30
2023-02-22T20:56:14.086Z,14.40
2023-02-22T20:58:41.911Z,14.30
2023-02-22T21:01:13.915Z,14.30
2023-02-22T21:03:45.357Z,14.30
2023-02-22T21:06:17.626Z,14.30
2023-02-22T21:08:49.247Z,14.30
2023-02-22T21:11:18.463Z,14.40
2023-02-22T21:13:46.203Z,14.30
2023-02-22T21:16:19.960Z,14.30
2023-02-22T21:18:49.434Z,14.30
2023-02-22T21:21:16.961Z,14.30
2023-02-22T21:23:52.526Z,14.30
2023-02-22T21:26:27.384Z,14.30
2023-02-22T21:28:57.379Z,14.30
2023-02-22T21:31:25.396Z,14.30
2023-02-22T21:33:55.313Z,14.30
2023-02-22T21:36:25.500Z,14.30
2023-02-22T21:39:08.271Z,14.30
2023-02-22T21:41:39.154Z,14.20
2023-02-22T21:44:07.515Z,14.30
2023-02-22T21:46:34.441Z,14.30
2023-02-22T21:49:02.227Z,14.20
2023-02-22T21:51:32.937Z,14.20
2023-02-22T21:54:04.803Z,14.20
2023-02-22T21:56:40.464Z,14.30
2023-02-22T21:59:14.167Z,14.30
2023-02-22T22:01:48.196Z,14.20
2023-02-22T22:04:31.632Z,14.20
2023-02-22T22:07:02.179Z,14.20
2023-02-22T22:09:35.776Z,14.30
2023-02-22T22:12:06.744Z,14.20
2023-02-22T22:14:35.472Z,14.30
2023-02-22T22:17:05.569Z,14.30
2023-02-22T22:19:38.388Z,14.30
2023-02-22T22:22:05.322Z,14.20
2023-02-22T22:24:34.355Z,14.30
2023-02-22T22:27:03.891Z,14.30
2023-02-22T22:29:34.234Z,14.20
2023-02-22T22:32:02.019Z,14.20
2023-02-22T22:34:34.019Z,14.20
2023-02-22T22:37:01.121Z,14.20
2023-02-22T22:39:28.489Z,14.20
2023-02-22T22:41:55.567Z,14.20
2023-02-22T22:44:22.985Z,14.20
2023-02-22T22:46:53.419Z,14.20
2023-02-22T22:49:20.658Z,14.20
2023-02-22T22:51:47.695Z,14.20
2023-02-22T22:54:14.662Z,14.20
2023-02-22T22:56:41.618Z,14.20
2023-02-22T22:59:10.545Z,14.20
2023-02-22T23:01:40.654Z,14.20
2023-02-22T23:04:11.561Z,14.20
2023-02-22T23:06:41.245Z,14.20
2023-02-22T23:09:31.626Z,14.20
2023-02-22T23:12:16.575Z,14.10
2023-02-22T23:14:44.965Z,14.10
2023-02-22T23:17:26.883Z,14.10
2023-02-22T23:19:53.872Z,14.10
2023-02-22T23:22:21.283Z,14.10
2023-02-22T23:24:48.466Z,14.10
2023-02-22T23:27:15.498Z,14.10
2023-02-22T23:29:46.401Z,14.10
2023-02-22T23:32:14.216Z,14.10
2023-02-22T23:34:41.577Z,14.10
2023-02-22T23:37:10.620Z,14.10
2023-02-22T23:39:38.560Z,14.10
2023-02-22T23:42:08.711Z,14.10
2023-02-22T23:44:35.770Z,14.10
2023-02-22T23:47:03.875Z,14.10
2023-02-22T23:49:35.807Z,14.10
2023-02-22T23:52:07.453Z,14.10
2023-02-22T23:54:36.490Z,14.10
2023-02-22T23:57:05.523Z,14.10
2023-02-22T23:59:33.559Z,14.10
